Aviation Digital Data Service (ADDS)

Output produced by METARs form (0747 UTC 01 August 2015)
found at http://aviationweather.gov/adds/metars/
 
KBDL 010533Z 0106/0212 19006KT P6SM SCT100 
     FM011400 21005KT P6SM BKN070 
     FM011700 25009KT P6SM VCSH BKN060 
     FM012300 29005KT P6SM BKN060 
     FM020400 00000KT P6SM FEW250